sensor_id;sensor_type;location;lat;lon;timestamp;P1;durP1;ratioP1;P2;durP2;ratioP2
41059;SDS011;26811;53.160;8.202;2023-08-31T00:03:55;10.90;;;4.22;;
41059;SDS011;26811;53.160;8.202;2023-08-31T00:08:55;7.35;;;3.50;;
41059;SDS011;26811;53.160;8.202;2023-08-31T00:13:56;5.90;;;3.65;;
41059;SDS011;26811;53.160;8.202;2023-08-31T00:18:56;7.13;;;3.90;;
41059;SDS011;26811;53.160;8.202;2023-08-31T00:23:57;11.40;;;3.90;;
41059;SDS011;26811;53.160;8.202;2023-08-31T00:28:57;7.97;;;4.15;;
41059;SDS011;26811;53.160;8.202;2023-08-31T00:33:58;8.10;;;3.97;;
41059;SDS011;26811;53.160;8.202;2023-08-31T00:39:06;7.82;;;4.43;;
41059;SDS011;26811;53.160;8.202;2023-08-31T00:44:08;11.05;;;4.28;;
41059;SDS011;26811;53.160;8.202;2023-08-31T00:49:09;11.52;;;4.55;;
41059;SDS011;26811;53.160;8.202;2023-08-31T00:54:09;9.90;;;4.55;;
41059;SDS011;26811;53.160;8.202;2023-08-31T00:59:10;9.77;;;4.60;;
41059;SDS011;26811;53.160;8.202;2023-08-31T01:21:25;12.80;;;5.18;;
41059;SDS011;26811;53.160;8.202;2023-08-31T01:26:34;11.85;;;5.53;;
41059;SDS011;26811;53.160;8.202;2023-08-31T01:31:42;12.23;;;5.50;;
41059;SDS011;26811;53.160;8.202;2023-08-31T01:36:44;14.25;;;6.18;;
41059;SDS011;26811;53.160;8.202;2023-08-31T01:41:48;12.23;;;5.20;;
41059;SDS011;26811;53.160;8.202;2023-08-31T01:47:03;13.65;;;5.47;;
41059;SDS011;26811;53.160;8.202;2023-08-31T01:52:07;8.73;;;5.55;;
41059;SDS011;26811;53.160;8.202;2023-08-31T01:57:08;9.82;;;5.70;;
41059;SDS011;26811;53.160;8.202;2023-08-31T02:02:08;11.55;;;5.50;;
41059;SDS011;26811;53.160;8.202;2023-08-31T02:07:09;10.95;;;5.82;;
41059;SDS011;26811;53.160;8.202;2023-08-31T02:12:09;16.95;;;5.55;;
41059;SDS011;26811;53.160;8.202;2023-08-31T02:17:10;11.00;;;5.45;;
41059;SDS011;26811;53.160;8.202;2023-08-31T02:22:10;11.60;;;5.63;;
41059;SDS011;26811;53.160;8.202;2023-08-31T02:27:11;12.60;;;5.78;;
41059;SDS011;26811;53.160;8.202;2023-08-31T02:32:11;15.07;;;5.40;;
41059;SDS011;26811;53.160;8.202;2023-08-31T02:37:12;12.05;;;5.38;;
41059;SDS011;26811;53.160;8.202;2023-08-31T02:42:13;14.55;;;5.20;;
41059;SDS011;26811;53.160;8.202;2023-08-31T02:47:14;10.95;;;5.10;;
41059;SDS011;26811;53.160;8.202;2023-08-31T02:52:15;11.68;;;4.63;;
41059;SDS011;26811;53.160;8.202;2023-08-31T02:57:16;11.15;;;4.97;;
41059;SDS011;26811;53.160;8.202;2023-08-31T03:02:19;11.63;;;5.03;;
41059;SDS011;26811;53.160;8.202;2023-08-31T03:07:20;10.68;;;5.18;;
41059;SDS011;26811;53.160;8.202;2023-08-31T03:12:20;9.00;;;4.60;;
41059;SDS011;26811;53.160;8.202;2023-08-31T03:17:21;12.27;;;5.18;;
41059;SDS011;26811;53.160;8.202;2023-08-31T03:22:21;15.60;;;5.00;;
41059;SDS011;26811;53.160;8.202;2023-08-31T03:27:22;8.13;;;4.38;;
41059;SDS011;26811;53.160;8.202;2023-08-31T03:32:22;13.90;;;4.80;;
41059;SDS011;26811;53.160;8.202;2023-08-31T03:37:23;9.05;;;4.50;;
41059;SDS011;26811;53.160;8.202;2023-08-31T03:42:23;13.90;;;4.85;;
41059;SDS011;26811;53.160;8.202;2023-08-31T03:47:24;11.40;;;4.72;;
41059;SDS011;26811;53.160;8.202;2023-08-31T03:52:24;10.80;;;4.80;;
41059;SDS011;26811;53.160;8.202;2023-08-31T03:57:25;8.50;;;4.80;;
41059;SDS011;26811;53.160;8.202;2023-08-31T04:02:25;13.25;;;5.05;;
41059;SDS011;26811;53.160;8.202;2023-08-31T04:07:27;18.38;;;6.05;;
41059;SDS011;26811;53.160;8.202;2023-08-31T04:12:27;12.43;;;5.10;;
41059;SDS011;26811;53.160;8.202;2023-08-31T04:22:31;14.65;;;6.07;;
41059;SDS011;26811;53.160;8.202;2023-08-31T04:27:31;12.50;;;5.97;;
41059;SDS011;26811;53.160;8.202;2023-08-31T04:32:32;11.85;;;6.10;;
41059;SDS011;26811;53.160;8.202;2023-08-31T04:37:33;10.80;;;6.40;;
41059;SDS011;26811;53.160;8.202;2023-08-31T04:42:33;17.52;;;6.43;;
41059;SDS011;26811;53.160;8.202;2023-08-31T04:47:34;16.92;;;6.75;;
41059;SDS011;26811;53.160;8.202;2023-08-31T04:52:34;14.57;;;7.85;;
41059;SDS011;26811;53.160;8.202;2023-08-31T04:57:35;21.15;;;8.63;;
41059;SDS011;26811;53.160;8.202;2023-08-31T05:02:35;14.18;;;8.23;;
41059;SDS011;26811;53.160;8.202;2023-08-31T05:07:36;20.63;;;8.57;;
41059;SDS011;26811;53.160;8.202;2023-08-31T05:12:37;19.95;;;8.98;;
41059;SDS011;26811;53.160;8.202;2023-08-31T05:17:38;23.17;;;9.57;;
41059;SDS011;26811;53.160;8.202;2023-08-31T05:22:38;18.40;;;8.93;;
41059;SDS011;26811;53.160;8.202;2023-08-31T05:27:39;21.80;;;10.80;;
41059;SDS011;26811;53.160;8.202;2023-08-31T05:32:40;23.52;;;11.13;;
41059;SDS011;26811;53.160;8.202;2023-08-31T05:37:40;15.23;;;10.23;;
41059;SDS011;26811;53.160;8.202;2023-08-31T05:42:41;16.48;;;9.98;;
41059;SDS011;26811;53.160;8.202;2023-08-31T05:47:42;16.20;;;9.80;;
41059;SDS011;26811;53.160;8.202;2023-08-31T05:52:43;16.83;;;9.60;;
41059;SDS011;26811;53.160;8.202;2023-08-31T05:57:44;17.25;;;9.43;;
41059;SDS011;26811;53.160;8.202;2023-08-31T06:02:44;18.13;;;10.40;;
41059;SDS011;26811;53.160;8.202;2023-08-31T06:07:45;18.73;;;9.75;;
41059;SDS011;26811;53.160;8.202;2023-08-31T06:12:45;24.70;;;10.50;;
41059;SDS011;26811;53.160;8.202;2023-08-31T06:17:46;14.00;;;9.63;;
41059;SDS011;26811;53.160;8.202;2023-08-31T06:22:49;16.73;;;10.13;;
41059;SDS011;26811;53.160;8.202;2023-08-31T06:27:50;15.90;;;9.38;;
41059;SDS011;26811;53.160;8.202;2023-08-31T06:32:51;17.83;;;9.27;;
41059;SDS011;26811;53.160;8.202;2023-08-31T06:37:51;15.45;;;9.77;;
41059;SDS011;26811;53.160;8.202;2023-08-31T06:42:52;16.23;;;9.80;;
41059;SDS011;26811;53.160;8.202;2023-08-31T06:47:52;19.35;;;9.13;;
41059;SDS011;26811;53.160;8.202;2023-08-31T06:52:53;12.90;;;8.95;;
41059;SDS011;26811;53.160;8.202;2023-08-31T06:57:53;14.43;;;8.68;;
41059;SDS011;26811;53.160;8.202;2023-08-31T07:02:54;11.68;;;7.78;;
41059;SDS011;26811;53.160;8.202;2023-08-31T07:07:55;11.57;;;8.52;;
41059;SDS011;26811;53.160;8.202;2023-08-31T07:12:55;11.88;;;8.40;;
41059;SDS011;26811;53.160;8.202;2023-08-31T07:17:56;14.02;;;7.93;;
41059;SDS011;26811;53.160;8.202;2023-08-31T07:22:57;11.50;;;8.18;;
41059;SDS011;26811;53.160;8.202;2023-08-31T07:27:57;13.80;;;8.20;;
41059;SDS011;26811;53.160;8.202;2023-08-31T07:32:59;12.43;;;8.23;;
41059;SDS011;26811;53.160;8.202;2023-08-31T07:38:03;13.13;;;7.93;;
41059;SDS011;26811;53.160;8.202;2023-08-31T07:43:03;12.90;;;7.85;;
41059;SDS011;26811;53.160;8.202;2023-08-31T07:48:04;11.63;;;7.10;;
41059;SDS011;26811;53.160;8.202;2023-08-31T07:53:05;9.98;;;7.50;;
41059;SDS011;26811;53.160;8.202;2023-08-31T07:58:06;11.30;;;7.65;;
41059;SDS011;26811;53.160;8.202;2023-08-31T08:03:07;11.85;;;7.38;;
41059;SDS011;26811;53.160;8.202;2023-08-31T08:08:07;13.05;;;6.78;;
41059;SDS011;26811;53.160;8.202;2023-08-31T08:13:08;15.77;;;6.38;;
41059;SDS011;26811;53.160;8.202;2023-08-31T08:18:09;12.00;;;6.45;;
41059;SDS011;26811;53.160;8.202;2023-08-31T08:23:10;10.65;;;6.80;;
41059;SDS011;26811;53.160;8.202;2023-08-31T08:28:10;12.82;;;6.88;;
41059;SDS011;26811;53.160;8.202;2023-08-31T08:33:11;12.10;;;6.43;;
41059;SDS011;26811;53.160;8.202;2023-08-31T08:38:11;13.57;;;6.93;;
41059;SDS011;26811;53.160;8.202;2023-08-31T08:43:12;7.95;;;7.15;;
41059;SDS011;26811;53.160;8.202;2023-08-31T08:48:14;9.52;;;6.63;;
41059;SDS011;26811;53.160;8.202;2023-08-31T08:53:15;14.45;;;6.28;;
41059;SDS011;26811;53.160;8.202;2023-08-31T08:58:16;10.18;;;6.30;;
41059;SDS011;26811;53.160;8.202;2023-08-31T09:03:16;9.93;;;5.43;;
41059;SDS011;26811;53.160;8.202;2023-08-31T09:08:17;6.90;;;4.80;;
41059;SDS011;26811;53.160;8.202;2023-08-31T09:13:26;9.52;;;4.15;;
41059;SDS011;26811;53.160;8.202;2023-08-31T09:18:29;8.77;;;3.95;;
41059;SDS011;26811;53.160;8.202;2023-08-31T09:23:32;10.68;;;3.60;;
41059;SDS011;26811;53.160;8.202;2023-08-31T09:28:33;6.95;;;3.30;;
41059;SDS011;26811;53.160;8.202;2023-08-31T09:33:34;10.25;;;3.97;;
41059;SDS011;26811;53.160;8.202;2023-08-31T09:38:44;14.85;;;3.88;;
41059;SDS011;26811;53.160;8.202;2023-08-31T09:43:45;7.40;;;3.00;;
41059;SDS011;26811;53.160;8.202;2023-08-31T09:48:46;4.07;;;2.00;;
41059;SDS011;26811;53.160;8.202;2023-08-31T09:53:48;5.50;;;2.15;;
41059;SDS011;26811;53.160;8.202;2023-08-31T09:58:51;6.38;;;1.30;;
41059;SDS011;26811;53.160;8.202;2023-08-31T10:03:52;3.10;;;1.30;;
41059;SDS011;26811;53.160;8.202;2023-08-31T10:08:53;4.88;;;1.48;;
41059;SDS011;26811;53.160;8.202;2023-08-31T10:13:54;7.53;;;1.65;;
41059;SDS011;26811;53.160;8.202;2023-08-31T10:18:55;6.22;;;2.13;;
41059;SDS011;26811;53.160;8.202;2023-08-31T10:23:56;8.35;;;2.05;;
41059;SDS011;26811;53.160;8.202;2023-08-31T10:28:57;7.10;;;2.30;;
41059;SDS011;26811;53.160;8.202;2023-08-31T10:34:00;7.10;;;2.40;;
41059;SDS011;26811;53.160;8.202;2023-08-31T10:39:06;5.18;;;1.73;;
41059;SDS011;26811;53.160;8.202;2023-08-31T10:44:26;4.55;;;1.60;;
41059;SDS011;26811;53.160;8.202;2023-08-31T10:49:30;4.88;;;1.55;;
41059;SDS011;26811;53.160;8.202;2023-08-31T10:54:33;3.40;;;1.30;;
41059;SDS011;26811;53.160;8.202;2023-08-31T10:59:47;4.60;;;1.20;;
41059;SDS011;26811;53.160;8.202;2023-08-31T11:04:53;7.80;;;1.45;;
41059;SDS011;26811;53.160;8.202;2023-08-31T11:15:13;6.15;;;1.10;;
41059;SDS011;26811;53.160;8.202;2023-08-31T11:20:19;4.68;;;1.42;;
41059;SDS011;26811;53.160;8.202;2023-08-31T11:25:21;6.13;;;1.48;;
41059;SDS011;26811;53.160;8.202;2023-08-31T11:30:27;4.72;;;1.20;;
41059;SDS011;26811;53.160;8.202;2023-08-31T11:35:35;2.35;;;1.30;;
41059;SDS011;26811;53.160;8.202;2023-08-31T11:40:39;2.53;;;1.10;;
41059;SDS011;26811;53.160;8.202;2023-08-31T11:45:41;2.38;;;1.08;;
41059;SDS011;26811;53.160;8.202;2023-08-31T11:50:42;3.42;;;1.02;;
41059;SDS011;26811;53.160;8.202;2023-08-31T11:55:49;4.10;;;1.38;;
41059;SDS011;26811;53.160;8.202;2023-08-31T12:00:54;3.15;;;1.20;;
41059;SDS011;26811;53.160;8.202;2023-08-31T12:11:11;5.43;;;1.40;;
41059;SDS011;26811;53.160;8.202;2023-08-31T12:16:12;7.20;;;1.83;;
41059;SDS011;26811;53.160;8.202;2023-08-31T12:21:13;13.43;;;1.80;;
41059;SDS011;26811;53.160;8.202;2023-08-31T12:26:14;2.95;;;1.75;;
41059;SDS011;26811;53.160;8.202;2023-08-31T12:31:14;4.88;;;1.90;;
41059;SDS011;26811;53.160;8.202;2023-08-31T12:36:15;5.13;;;1.85;;
41059;SDS011;26811;53.160;8.202;2023-08-31T12:41:16;4.32;;;2.00;;
41059;SDS011;26811;53.160;8.202;2023-08-31T12:46:18;5.90;;;1.70;;
41059;SDS011;26811;53.160;8.202;2023-08-31T12:51:18;3.53;;;1.73;;
41059;SDS011;26811;53.160;8.202;2023-08-31T12:56:19;5.65;;;1.67;;
41059;SDS011;26811;53.160;8.202;2023-08-31T13:01:22;3.28;;;1.52;;
41059;SDS011;26811;53.160;8.202;2023-08-31T13:06:23;5.15;;;1.77;;
41059;SDS011;26811;53.160;8.202;2023-08-31T13:11:25;6.93;;;1.63;;
41059;SDS011;26811;53.160;8.202;2023-08-31T13:16:25;3.45;;;1.63;;
41059;SDS011;26811;53.160;8.202;2023-08-31T13:21:26;3.65;;;2.03;;
41059;SDS011;26811;53.160;8.202;2023-08-31T13:26:27;4.93;;;2.00;;
41059;SDS011;26811;53.160;8.202;2023-08-31T13:31:27;3.90;;;1.80;;
41059;SDS011;26811;53.160;8.202;2023-08-31T13:36:28;5.70;;;1.60;;
41059;SDS011;26811;53.160;8.202;2023-08-31T13:41:29;3.05;;;1.30;;
41059;SDS011;26811;53.160;8.202;2023-08-31T13:46:30;4.70;;;1.50;;
41059;SDS011;26811;53.160;8.202;2023-08-31T13:51:31;2.28;;;1.30;;
41059;SDS011;26811;53.160;8.202;2023-08-31T13:56:32;5.13;;;1.63;;
41059;SDS011;26811;53.160;8.202;2023-08-31T14:01:33;2.35;;;1.50;;
41059;SDS011;26811;53.160;8.202;2023-08-31T14:06:34;1.77;;;1.33;;
41059;SDS011;26811;53.160;8.202;2023-08-31T14:11:34;2.22;;;1.60;;
41059;SDS011;26811;53.160;8.202;2023-08-31T14:16:39;2.50;;;1.40;;
41059;SDS011;26811;53.160;8.202;2023-08-31T14:21:39;4.32;;;1.42;;
41059;SDS011;26811;53.160;8.202;2023-08-31T14:26:40;2.22;;;1.13;;
41059;SDS011;26811;53.160;8.202;2023-08-31T14:31:43;4.18;;;1.30;;
41059;SDS011;26811;53.160;8.202;2023-08-31T14:36:44;2.08;;;1.33;;
41059;SDS011;26811;53.160;8.202;2023-08-31T14:41:45;1.73;;;1.17;;
41059;SDS011;26811;53.160;8.202;2023-08-31T14:46:46;3.20;;;1.40;;
41059;SDS011;26811;53.160;8.202;2023-08-31T14:51:46;2.13;;;0.98;;
41059;SDS011;26811;53.160;8.202;2023-08-31T14:56:47;2.53;;;1.10;;
41059;SDS011;26811;53.160;8.202;2023-08-31T15:01:48;4.63;;;1.20;;
41059;SDS011;26811;53.160;8.202;2023-08-31T15:06:48;1.65;;;1.13;;
41059;SDS011;26811;53.160;8.202;2023-08-31T15:11:49;2.13;;;1.23;;
41059;SDS011;26811;53.160;8.202;2023-08-31T15:16:51;2.30;;;1.20;;
41059;SDS011;26811;53.160;8.202;2023-08-31T15:21:51;2.75;;;1.08;;
41059;SDS011;26811;53.160;8.202;2023-08-31T15:26:52;4.88;;;1.42;;
41059;SDS011;26811;53.160;8.202;2023-08-31T15:31:52;3.53;;;1.60;;
41059;SDS011;26811;53.160;8.202;2023-08-31T15:36:53;3.63;;;1.40;;
41059;SDS011;26811;53.160;8.202;2023-08-31T15:41:53;4.68;;;1.42;;
41059;SDS011;26811;53.160;8.202;2023-08-31T15:46:54;5.55;;;1.38;;
41059;SDS011;26811;53.160;8.202;2023-08-31T15:51:54;1.83;;;1.40;;
41059;SDS011;26811;53.160;8.202;2023-08-31T15:56:56;2.78;;;1.58;;
41059;SDS011;26811;53.160;8.202;2023-08-31T16:01:56;3.30;;;1.60;;
41059;SDS011;26811;53.160;8.202;2023-08-31T16:06:57;4.28;;;1.50;;
41059;SDS011;26811;53.160;8.202;2023-08-31T16:11:58;3.58;;;1.52;;
41059;SDS011;26811;53.160;8.202;2023-08-31T16:16:59;3.30;;;1.60;;
41059;SDS011;26811;53.160;8.202;2023-08-31T16:21:59;2.60;;;1.50;;
41059;SDS011;26811;53.160;8.202;2023-08-31T16:27:00;2.63;;;1.50;;
41059;SDS011;26811;53.160;8.202;2023-08-31T16:32:00;3.28;;;1.40;;
41059;SDS011;26811;53.160;8.202;2023-08-31T16:37:01;2.15;;;1.30;;
41059;SDS011;26811;53.160;8.202;2023-08-31T16:42:04;4.40;;;1.50;;
41059;SDS011;26811;53.160;8.202;2023-08-31T16:47:04;3.75;;;1.55;;
41059;SDS011;26811;53.160;8.202;2023-08-31T16:52:05;5.63;;;1.48;;
41059;SDS011;26811;53.160;8.202;2023-08-31T16:57:06;5.40;;;1.70;;
41059;SDS011;26811;53.160;8.202;2023-08-31T17:02:06;3.30;;;1.88;;
41059;SDS011;26811;53.160;8.202;2023-08-31T17:07:08;2.63;;;1.60;;
41059;SDS011;26811;53.160;8.202;2023-08-31T17:12:09;4.82;;;2.78;;
41059;SDS011;26811;53.160;8.202;2023-08-31T17:17:10;4.65;;;1.90;;
41059;SDS011;26811;53.160;8.202;2023-08-31T17:22:10;5.28;;;2.10;;
41059;SDS011;26811;53.160;8.202;2023-08-31T17:27:11;4.35;;;2.00;;
41059;SDS011;26811;53.160;8.202;2023-08-31T17:32:11;14.45;;;2.47;;
41059;SDS011;26811;53.160;8.202;2023-08-31T17:37:12;12.25;;;2.70;;
41059;SDS011;26811;53.160;8.202;2023-08-31T17:42:13;4.35;;;2.03;;
41059;SDS011;26811;53.160;8.202;2023-08-31T17:47:13;5.47;;;2.45;;
41059;SDS011;26811;53.160;8.202;2023-08-31T17:52:14;7.25;;;2.83;;
41059;SDS011;26811;53.160;8.202;2023-08-31T17:57:14;5.22;;;2.60;;
41059;SDS011;26811;53.160;8.202;2023-08-31T18:02:15;4.53;;;2.88;;
41059;SDS011;26811;53.160;8.202;2023-08-31T18:07:16;4.82;;;2.55;;
41059;SDS011;26811;53.160;8.202;2023-08-31T18:12:46;4.35;;;2.00;;
41059;SDS011;26811;53.160;8.202;2023-08-31T18:17:50;4.47;;;2.03;;
41059;SDS011;26811;53.160;8.202;2023-08-31T18:22:51;2.60;;;2.10;;
41059;SDS011;26811;53.160;8.202;2023-08-31T18:27:51;6.03;;;2.97;;
41059;SDS011;26811;53.160;8.202;2023-08-31T18:32:52;5.03;;;2.30;;
41059;SDS011;26811;53.160;8.202;2023-08-31T18:37:53;5.07;;;2.83;;
41059;SDS011;26811;53.160;8.202;2023-08-31T18:42:54;7.55;;;3.00;;
41059;SDS011;26811;53.160;8.202;2023-08-31T18:47:54;4.80;;;2.90;;
41059;SDS011;26811;53.160;8.202;2023-08-31T18:52:55;6.78;;;3.40;;
41059;SDS011;26811;53.160;8.202;2023-08-31T18:57:55;6.93;;;3.30;;
41059;SDS011;26811;53.160;8.202;2023-08-31T19:02:56;5.95;;;3.10;;
41059;SDS011;26811;53.160;8.202;2023-08-31T19:07:57;6.45;;;3.00;;
41059;SDS011;26811;53.160;8.202;2023-08-31T19:12:57;8.85;;;3.90;;
41059;SDS011;26811;53.160;8.202;2023-08-31T19:17:58;7.63;;;3.03;;
41059;SDS011;26811;53.160;8.202;2023-08-31T19:22:59;10.10;;;2.78;;
41059;SDS011;26811;53.160;8.202;2023-08-31T19:28:03;5.47;;;2.83;;
41059;SDS011;26811;53.160;8.202;2023-08-31T19:33:08;5.68;;;2.88;;
41059;SDS011;26811;53.160;8.202;2023-08-31T19:38:08;5.25;;;2.72;;
41059;SDS011;26811;53.160;8.202;2023-08-31T19:43:09;7.25;;;2.92;;
41059;SDS011;26811;53.160;8.202;2023-08-31T19:48:11;8.97;;;3.20;;
41059;SDS011;26811;53.160;8.202;2023-08-31T19:53:12;8.85;;;3.17;;
41059;SDS011;26811;53.160;8.202;2023-08-31T19:58:13;7.43;;;3.13;;
41059;SDS011;26811;53.160;8.202;2023-08-31T20:03:14;8.20;;;2.90;;
41059;SDS011;26811;53.160;8.202;2023-08-31T20:08:14;3.65;;;2.72;;
41059;SDS011;26811;53.160;8.202;2023-08-31T20:13:15;6.60;;;3.17;;
41059;SDS011;26811;53.160;8.202;2023-08-31T20:18:16;7.90;;;3.17;;
41059;SDS011;26811;53.160;8.202;2023-08-31T20:23:16;13.55;;;3.60;;
41059;SDS011;26811;53.160;8.202;2023-08-31T20:28:18;9.80;;;3.30;;
41059;SDS011;26811;53.160;8.202;2023-08-31T20:33:19;3.70;;;2.88;;
41059;SDS011;26811;53.160;8.202;2023-08-31T20:38:20;4.38;;;2.95;;
41059;SDS011;26811;53.160;8.202;2023-08-31T20:43:20;5.10;;;3.08;;
41059;SDS011;26811;53.160;8.202;2023-08-31T20:48:21;7.72;;;3.25;;
41059;SDS011;26811;53.160;8.202;2023-08-31T20:53:27;9.25;;;3.67;;
41059;SDS011;26811;53.160;8.202;2023-08-31T20:58:27;10.60;;;3.88;;
41059;SDS011;26811;53.160;8.202;2023-08-31T21:03:28;9.05;;;3.50;;
41059;SDS011;26811;53.160;8.202;2023-08-31T21:08:29;5.05;;;3.47;;
41059;SDS011;26811;53.160;8.202;2023-08-31T21:13:30;10.10;;;3.40;;
41059;SDS011;26811;53.160;8.202;2023-08-31T21:18:35;5.72;;;2.75;;
41059;SDS011;26811;53.160;8.202;2023-08-31T21:23:36;9.50;;;3.10;;
41059;SDS011;26811;53.160;8.202;2023-08-31T21:28:37;7.45;;;2.92;;
41059;SDS011;26811;53.160;8.202;2023-08-31T21:33:38;5.93;;;2.55;;
41059;SDS011;26811;53.160;8.202;2023-08-31T21:38:38;9.50;;;2.97;;
41059;SDS011;26811;53.160;8.202;2023-08-31T21:43:39;9.40;;;3.17;;
41059;SDS011;26811;53.160;8.202;2023-08-31T21:48:41;6.60;;;2.80;;
41059;SDS011;26811;53.160;8.202;2023-08-31T21:53:42;7.03;;;3.00;;
41059;SDS011;26811;53.160;8.202;2023-08-31T21:58:42;9.73;;;3.40;;
41059;SDS011;26811;53.160;8.202;2023-08-31T22:03:43;8.15;;;3.42;;
41059;SDS011;26811;53.160;8.202;2023-08-31T22:08:43;9.45;;;3.25;;
41059;SDS011;26811;53.160;8.202;2023-08-31T22:13:44;5.03;;;2.95;;
41059;SDS011;26811;53.160;8.202;2023-08-31T22:18:44;6.78;;;3.40;;
41059;SDS011;26811;53.160;8.202;2023-08-31T22:23:45;6.18;;;3.42;;
41059;SDS011;26811;53.160;8.202;2023-08-31T22:28:45;5.60;;;3.22;;
41059;SDS011;26811;53.160;8.202;2023-08-31T22:33:46;8.95;;;3.40;;
41059;SDS011;26811;53.160;8.202;2023-08-31T22:38:46;8.30;;;3.42;;
41059;SDS011;26811;53.160;8.202;2023-08-31T22:43:47;11.70;;;3.58;;
41059;SDS011;26811;53.160;8.202;2023-08-31T22:48:48;4.68;;;3.40;;
41059;SDS011;26811;53.160;8.202;2023-08-31T22:53:48;9.88;;;3.63;;
41059;SDS011;26811;53.160;8.202;2023-08-31T22:58:49;8.80;;;3.78;;
41059;SDS011;26811;53.160;8.202;2023-08-31T23:03:49;8.38;;;3.45;;
41059;SDS011;26811;53.160;8.202;2023-08-31T23:08:50;8.65;;;3.22;;
41059;SDS011;26811;53.160;8.202;2023-08-31T23:13:51;8.25;;;4.10;;
41059;SDS011;26811;53.160;8.202;2023-08-31T23:18:51;8.07;;;3.20;;
41059;SDS011;26811;53.160;8.202;2023-08-31T23:23:52;10.52;;;3.70;;
41059;SDS011;26811;53.160;8.202;2023-08-31T23:28:53;6.15;;;3.00;;
41059;SDS011;26811;53.160;8.202;2023-08-31T23:33:53;8.98;;;3.58;;
41059;SDS011;26811;53.160;8.202;2023-08-31T23:38:54;7.03;;;3.40;;
41059;SDS011;26811;53.160;8.202;2023-08-31T23:43:55;12.07;;;3.00;;
41059;SDS011;26811;53.160;8.202;2023-08-31T23:48:56;8.52;;;3.40;;
41059;SDS011;26811;53.160;8.202;2023-08-31T23:53:57;7.25;;;3.33;;
41059;SDS011;26811;53.160;8.202;2023-08-31T23:58:58;7.97;;;2.83;;
